createdAt,value
2019-05-12T00:00:18.260Z,58.80
2019-05-12T00:01:18.530Z,56.70
2019-05-12T00:02:17.764Z,57.18
2019-05-12T00:03:15.703Z,55.18
2019-05-12T00:04:15.662Z,53.66
2019-05-12T00:05:18.176Z,56.04
2019-05-12T00:06:17.528Z,55.76
2019-05-12T00:07:17.893Z,56.80
2019-05-12T00:08:15.501Z,56.32
2019-05-12T00:09:15.474Z,56.32
2019-05-12T00:10:17.599Z,56.32
2019-05-12T00:11:15.373Z,55.37
2019-05-12T00:12:15.336Z,52.81
2019-05-12T00:13:15.293Z,54.43
2019-05-12T00:14:17.636Z,52.05
2019-05-12T00:15:15.212Z,52.81
2019-05-12T00:16:15.171Z,54.80
2019-05-12T00:17:15.126Z,54.43
2019-05-12T00:18:15.082Z,53.57
2019-05-12T00:19:15.045Z,52.53
2019-05-12T00:20:15.007Z,51.48
2019-05-12T00:21:14.961Z,50.05
2019-05-12T00:22:14.917Z,49.77
2019-05-12T00:23:26.587Z,51.20
2019-05-12T00:24:14.838Z,51.48
2019-05-12T00:25:14.797Z,49.96
2019-05-12T00:26:14.757Z,50.15
2019-05-12T00:27:14.716Z,49.87
2019-05-12T00:28:14.675Z,49.29
2019-05-12T00:29:14.637Z,47.68
2019-05-12T00:30:14.585Z,49.39
2019-05-12T00:31:14.544Z,48.54
2019-05-12T00:32:14.505Z,46.54
2019-05-12T00:33:14.468Z,44.73
2019-05-12T00:34:14.425Z,44.64
2019-05-12T00:35:14.379Z,45.12
2019-05-12T00:36:14.339Z,45.21
2019-05-12T00:37:14.300Z,45.97
2019-05-12T00:38:14.259Z,44.07
2019-05-12T00:39:14.218Z,44.17
2019-05-12T00:40:14.175Z,42.27
2019-05-12T00:41:14.132Z,43.02
2019-05-12T00:42:14.088Z,43.98
2019-05-12T00:43:14.046Z,44.54
2019-05-12T00:44:14.007Z,45.87
2019-05-12T00:45:13.969Z,44.54
2019-05-12T00:46:13.928Z,43.79
2019-05-12T00:47:13.886Z,43.60
2019-05-12T00:48:13.844Z,42.74
2019-05-12T00:49:13.800Z,41.50
2019-05-12T00:50:13.762Z,40.06
2019-05-12T00:51:13.720Z,41.11
2019-05-12T00:52:13.676Z,39.59
2019-05-12T00:53:13.633Z,38.45
2019-05-12T00:54:13.589Z,41.11
2019-05-12T00:55:13.576Z,41.01
2019-05-12T00:56:13.510Z,39.49
2019-05-12T00:57:13.471Z,40.16
2019-05-12T00:58:13.428Z,38.82
2019-05-12T00:59:13.386Z,39.40
2019-05-12T01:00:13.347Z,40.16
2019-05-12T01:01:13.308Z,40.34
2019-05-12T01:02:13.256Z,39.01
2019-05-12T01:03:13.216Z,38.92
2019-05-12T01:04:13.175Z,37.90
2019-05-12T01:05:13.135Z,40.75
2019-05-12T01:06:13.095Z,42.34
2019-05-12T01:07:13.048Z,41.39
2019-05-12T01:08:13.011Z,41.86
2019-05-12T01:09:12.969Z,39.87
2019-05-12T01:10:12.943Z,38.54
2019-05-12T01:11:12.887Z,38.26
2019-05-12T01:12:12.845Z,38.16
2019-05-12T01:13:12.800Z,39.01
2019-05-12T01:14:12.755Z,37.97
2019-05-12T01:15:12.717Z,35.41
2019-05-12T01:16:12.677Z,34.46
2019-05-12T01:17:12.636Z,33.80
2019-05-12T01:18:12.595Z,35.22
2019-05-12T01:19:12.553Z,35.41
2019-05-12T01:20:12.509Z,35.50
2019-05-12T01:21:12.467Z,34.08
2019-05-12T01:22:12.422Z,32.65
2019-05-12T01:23:12.384Z,34.27
2019-05-12T01:24:12.349Z,32.09
2019-05-12T01:25:12.300Z,32.46
2019-05-12T01:26:12.256Z,33.42
2019-05-12T01:27:12.216Z,31.71
2019-05-12T01:28:12.175Z,32.28
2019-05-12T01:29:12.139Z,31.90
2019-05-12T01:30:12.094Z,33.32
2019-05-12T01:31:12.050Z,32.09
2019-05-12T01:32:12.007Z,32.09
2019-05-12T01:33:11.968Z,33.70
2019-05-12T01:34:11.926Z,33.98
2019-05-12T01:35:11.888Z,32.75
2019-05-12T01:36:11.843Z,33.61
2019-05-12T01:37:11.799Z,32.84
2019-05-12T01:38:11.758Z,31.99
2019-05-12T01:39:11.720Z,31.52
2019-05-12T01:40:11.675Z,31.42
2019-05-12T01:41:11.632Z,31.13
2019-05-12T01:42:11.588Z,30.19
2019-05-12T01:43:11.546Z,27.81
2019-05-12T01:44:11.507Z,28.48
2019-05-12T01:45:11.467Z,28.96
2019-05-12T01:46:11.426Z,29.52
2019-05-12T01:47:11.385Z,28.10
2019-05-12T01:48:11.342Z,26.58
2019-05-12T01:49:11.299Z,26.39
2019-05-12T01:50:11.259Z,26.29
2019-05-12T01:51:11.212Z,24.77
2019-05-12T01:52:11.173Z,24.40
2019-05-12T01:53:11.133Z,25.35
2019-05-12T01:54:14.860Z,26.39
2019-05-12T01:55:11.050Z,25.35
2019-05-12T01:56:11.007Z,27.25
2019-05-12T01:57:10.966Z,26.48
2019-05-12T01:58:10.929Z,26.01
2019-05-12T01:59:10.884Z,26.77
2019-05-12T02:00:10.842Z,25.25
2019-05-12T02:01:10.797Z,23.73
2019-05-12T02:02:10.752Z,24.49
2019-05-12T02:03:10.714Z,23.53
2019-05-12T02:04:10.694Z,22.50
2019-05-12T02:05:10.632Z,23.07
2019-05-12T02:06:10.591Z,21.73
2019-05-12T02:07:10.550Z,20.12
2019-05-12T02:08:10.511Z,21.45
2019-05-12T02:09:10.463Z,20.41
2019-05-12T02:10:10.420Z,20.03
2019-05-12T02:11:10.383Z,19.17
2019-05-12T02:12:10.338Z,18.88
2019-05-12T02:13:10.296Z,18.79
2019-05-12T02:14:10.252Z,17.08
2019-05-12T02:15:10.210Z,16.98
2019-05-12T02:16:10.171Z,18.51
2019-05-12T02:17:10.133Z,18.98
2019-05-12T02:18:10.089Z,17.94
2019-05-12T02:19:10.049Z,18.89
2019-05-12T02:20:10.005Z,18.70
2019-05-12T02:21:09.961Z,18.51
2019-05-12T02:22:09.916Z,19.56
2019-05-12T02:23:09.891Z,19.08
2019-05-12T02:24:23.458Z,21.08
2019-05-12T02:25:09.795Z,21.17
2019-05-12T02:26:09.757Z,21.26
2019-05-12T02:27:09.707Z,21.36
2019-05-12T02:28:09.732Z,21.83
2019-05-12T02:29:09.627Z,20.79
2019-05-12T02:30:10.266Z,23.07
2019-05-12T02:31:09.750Z,21.08
2019-05-12T02:32:09.503Z,21.26
2019-05-12T02:33:09.459Z,18.79
2019-05-12T02:34:09.442Z,21.83
2019-05-12T02:35:09.373Z,21.83
2019-05-12T02:36:09.333Z,21.63
2019-05-12T02:37:09.295Z,21.26
2019-05-12T02:38:09.254Z,21.17
2019-05-12T02:39:09.211Z,20.22
2019-05-12T02:40:09.168Z,19.92
2019-05-12T02:41:09.122Z,20.22
2019-05-12T02:42:09.080Z,20.59
2019-05-12T02:43:09.042Z,19.92
2019-05-12T02:44:09.003Z,21.36
2019-05-12T02:45:08.998Z,20.50
2019-05-12T02:46:08.919Z,19.27
2019-05-12T02:47:08.874Z,19.64
2019-05-12T02:48:08.833Z,18.70
2019-05-12T02:49:08.790Z,19.64
2019-05-12T02:50:08.750Z,19.73
2019-05-12T02:51:08.708Z,18.60
2019-05-12T02:52:08.664Z,17.17
2019-05-12T02:53:08.634Z,16.98
2019-05-12T02:54:08.575Z,15.37
2019-05-12T02:55:08.541Z,17.08
2019-05-12T02:56:08.495Z,17.17
2019-05-12T02:57:08.454Z,16.32
2019-05-12T02:58:08.423Z,15.09
2019-05-12T02:59:08.366Z,17.27
2019-05-12T03:00:08.330Z,17.56
2019-05-12T03:01:08.301Z,17.46
2019-05-12T03:02:08.253Z,15.75
2019-05-12T03:03:08.250Z,14.99
2019-05-12T03:04:08.164Z,14.42
2019-05-12T03:05:08.123Z,14.04
2019-05-12T03:06:08.073Z,14.62
2019-05-12T03:07:08.032Z,15.47
2019-05-12T03:08:07.995Z,15.28
2019-05-12T03:09:07.951Z,14.05
2019-05-12T03:10:07.910Z,16.89
2019-05-12T03:11:07.871Z,15.76
2019-05-12T03:12:07.825Z,16.89
2019-05-12T03:13:07.782Z,15.47
2019-05-12T03:14:07.739Z,14.80
2019-05-12T03:15:07.701Z,12.71
2019-05-12T03:16:07.665Z,13.57
2019-05-12T03:17:07.638Z,14.32
2019-05-12T03:18:07.687Z,14.89
2019-05-12T03:19:07.529Z,13.66
2019-05-12T03:20:07.488Z,13.57
2019-05-12T03:21:07.448Z,13.66
2019-05-12T03:22:07.408Z,14.70
2019-05-12T03:37:17.857Z,4.74
2019-05-12T03:38:14.762Z,7.50
2019-05-12T03:39:15.014Z,8.35
2019-05-12T03:40:14.498Z,8.54
2019-05-12T03:41:14.662Z,7.87
2019-05-12T03:42:14.537Z,8.16
2019-05-12T03:43:14.524Z,9.59
2019-05-12T03:44:15.109Z,12.62
2019-05-12T03:45:14.919Z,15.18
2019-05-12T03:46:15.202Z,14.51
2019-05-12T03:47:14.487Z,13.85
2019-05-12T03:48:14.904Z,13.19
2019-05-12T03:49:15.331Z,13.38
2019-05-12T03:50:14.774Z,13.19
2019-05-12T03:51:15.496Z,12.81
2019-05-12T03:52:15.285Z,13.95
2019-05-12T03:53:15.667Z,13.57
2019-05-12T03:54:15.235Z,13.57
2019-05-12T03:55:30.320Z,12.99
2019-05-12T03:56:15.113Z,12.24
2019-05-12T03:57:15.013Z,12.15
2019-05-12T03:58:15.346Z,10.91
2019-05-12T03:59:15.022Z,11.30
2019-05-12T04:00:15.765Z,13.66
2019-05-12T04:01:15.024Z,12.05
2019-05-12T04:02:15.069Z,10.82
2019-05-12T04:03:15.381Z,13.67
2019-05-12T04:04:15.325Z,15.76
2019-05-12T04:05:15.540Z,15.76
2019-05-12T04:06:15.349Z,19.18
2019-05-12T04:07:14.988Z,18.51
2019-05-12T04:08:15.357Z,17.37
2019-05-12T04:09:15.422Z,18.60
2019-05-12T04:10:14.777Z,18.79
2019-05-12T04:11:14.587Z,18.98
2019-05-12T04:12:14.843Z,17.56
2019-05-12T04:13:15.091Z,18.79
2019-05-12T04:14:14.846Z,18.70
2019-05-12T04:15:15.206Z,17.18
2019-05-12T04:16:12.299Z,16.33
2019-05-12T04:17:14.778Z,14.33
2019-05-12T04:18:15.497Z,13.57
2019-05-12T04:19:14.632Z,14.05
2019-05-12T04:20:14.922Z,13.48
2019-05-12T04:21:15.268Z,13.48
2019-05-12T04:22:15.148Z,14.52
2019-05-12T04:23:14.966Z,13.00
2019-05-12T04:24:14.311Z,12.99
2019-05-12T04:25:14.570Z,12.90
2019-05-12T04:26:16.493Z,11.38
2019-05-12T04:27:14.818Z,11.38
2019-05-12T04:28:14.742Z,9.96
2019-05-12T04:29:15.147Z,9.67
2019-05-12T04:30:14.428Z,8.73
2019-05-12T04:31:11.672Z,8.63
2019-05-12T04:32:14.174Z,9.30
2019-05-12T04:33:15.084Z,9.49
2019-05-12T04:34:14.709Z,9.11
2019-05-12T04:35:14.533Z,9.68
2019-05-12T04:36:14.577Z,9.01
2019-05-12T04:37:14.556Z,9.59
2019-05-12T04:38:14.740Z,11.01
2019-05-12T04:39:14.430Z,13.29
2019-05-12T04:40:14.690Z,16.33
2019-05-12T04:41:14.389Z,15.76
2019-05-12T04:42:14.692Z,16.52
2019-05-12T04:43:14.296Z,17.08
2019-05-12T04:44:14.840Z,18.51
2019-05-12T04:45:11.088Z,21.45
2019-05-12T04:46:14.065Z,20.50
2019-05-12T04:47:11.004Z,18.60
2019-05-12T04:48:10.957Z,20.98
2019-05-12T04:49:10.916Z,19.74
2019-05-12T04:50:10.886Z,21.17
2019-05-12T04:51:10.836Z,20.98
2019-05-12T04:52:10.793Z,20.12
2019-05-12T04:53:10.748Z,18.41
2019-05-12T04:54:10.708Z,17.56
2019-05-12T04:55:10.662Z,16.52
2019-05-12T04:56:16.786Z,18.32
2019-05-12T04:57:10.583Z,17.37
2019-05-12T04:58:10.579Z,18.13
2019-05-12T04:59:10.502Z,20.98
2019-05-12T05:00:10.458Z,21.74
2019-05-12T05:01:10.416Z,22.02
2019-05-12T05:02:10.374Z,22.02
2019-05-12T05:03:10.332Z,22.78
2019-05-12T05:04:10.293Z,22.60
2019-05-12T05:05:10.250Z,22.40
2019-05-12T05:06:10.207Z,20.22
2019-05-12T05:07:10.162Z,17.08
2019-05-12T05:08:10.126Z,16.52
2019-05-12T05:09:10.083Z,16.80
2019-05-12T05:10:10.041Z,18.32
2019-05-12T05:11:10.012Z,18.70
2019-05-12T05:12:09.956Z,20.98
2019-05-12T05:13:09.914Z,21.83
2019-05-12T05:14:09.875Z,20.98
2019-05-12T05:15:09.831Z,20.98
2019-05-12T05:16:09.793Z,22.69
2019-05-12T05:18:43.803Z,22.31
2019-05-12T05:19:43.995Z,22.40
2019-05-12T05:20:43.589Z,22.50
2019-05-12T05:21:43.649Z,24.30
2019-05-12T05:22:43.800Z,22.40
2019-05-12T05:23:44.075Z,22.22
2019-05-12T05:24:41.559Z,24.88
2019-05-12T05:25:43.391Z,26.59
2019-05-12T05:26:43.443Z,30.01
2019-05-12T05:27:41.437Z,31.25
2019-05-12T05:28:43.471Z,32.57
2019-05-12T05:29:43.676Z,34.19
2019-05-12T05:30:41.306Z,33.53
2019-05-12T05:31:41.264Z,35.52
2019-05-12T05:32:41.223Z,34.29
2019-05-12T05:33:43.299Z,34.09
2019-05-12T05:34:46.260Z,34.48
2019-05-12T05:35:41.106Z,34.67
2019-05-12T05:36:43.198Z,34.76
2019-05-12T05:37:43.557Z,34.48
2019-05-12T05:38:43.520Z,36.28
2019-05-12T05:39:47.565Z,37.04
2019-05-12T05:40:40.890Z,38.94
2019-05-12T05:41:46.496Z,41.50
2019-05-12T05:42:40.815Z,41.50
2019-05-12T05:43:40.765Z,38.94
2019-05-12T05:44:40.726Z,38.28
2019-05-12T05:45:40.686Z,41.22
2019-05-12T05:46:47.746Z,40.08
2019-05-12T05:47:40.604Z,39.98
2019-05-12T05:48:40.560Z,43.02
2019-05-12T05:49:40.528Z,42.93
2019-05-12T05:50:40.472Z,44.45
2019-05-12T05:51:46.718Z,43.02
2019-05-12T05:52:40.395Z,41.31
2019-05-12T05:53:40.352Z,39.98
2019-05-12T05:54:40.312Z,40.17
2019-05-12T05:55:40.273Z,43.88
2019-05-12T05:56:43.216Z,41.98
2019-05-12T05:57:40.186Z,42.08
2019-05-12T05:58:45.467Z,44.54
2019-05-12T05:59:40.110Z,48.91
2019-05-12T06:00:40.062Z,48.16
2019-05-12T06:01:45.163Z,47.58
2019-05-12T06:02:40.653Z,52.05
2019-05-12T06:03:39.934Z,51.57
2019-05-12T06:04:44.429Z,55.37
2019-05-12T06:05:39.854Z,56.80
2019-05-12T06:06:42.722Z,56.99
2019-05-12T06:07:39.775Z,59.36
2019-05-12T06:08:39.732Z,59.01
2019-05-12T06:09:39.685Z,58.63
2019-05-12T06:10:40.611Z,58.16
2019-05-12T06:11:39.607Z,60.25
2019-05-12T06:12:40.361Z,58.44
2019-05-12T06:13:40.274Z,55.97
2019-05-12T06:14:40.942Z,57.68
2019-05-12T06:15:40.909Z,55.21
2019-05-12T06:16:39.400Z,56.26
2019-05-12T06:17:39.363Z,56.35
2019-05-12T06:18:39.317Z,54.64
2019-05-12T06:19:39.276Z,53.59
2019-05-12T06:20:39.235Z,54.26
2019-05-12T06:21:39.190Z,50.65
2019-05-12T06:22:39.153Z,56.45
2019-05-12T06:23:39.352Z,58.06
2019-05-12T06:24:39.092Z,56.16
2019-05-12T06:25:49.349Z,56.83
2019-05-12T06:26:52.891Z,55.69
2019-05-12T06:27:38.946Z,56.92
2019-05-12T06:28:41.166Z,59.11
2019-05-12T06:29:38.860Z,59.77
2019-05-12T06:30:44.472Z,63.57
2019-05-12T06:31:38.782Z,64.34
2019-05-12T06:32:41.163Z,63.42
2019-05-12T06:33:38.695Z,67.09
2019-05-12T06:34:38.658Z,67.22
2019-05-12T06:35:42.263Z,65.70
2019-05-12T06:36:38.571Z,63.10
2019-05-12T06:37:38.536Z,61.01
2019-05-12T06:38:40.478Z,64.65
2019-05-12T06:39:38.455Z,67.13
2019-05-12T06:40:40.993Z,64.65
2019-05-12T06:41:38.373Z,66.08
2019-05-12T06:42:38.328Z,64.18
2019-05-12T06:43:39.610Z,65.80
2019-05-12T06:44:38.244Z,67.13
2019-05-12T06:45:42.499Z,65.80
2019-05-12T06:46:38.195Z,69.02
2019-05-12T06:47:39.393Z,67.13
2019-05-12T06:48:41.861Z,68.93
2019-05-12T06:49:38.045Z,70.74
2019-05-12T06:50:39.351Z,69.50
2019-05-12T06:51:37.961Z,73.49
2019-05-12T06:52:38.733Z,75.40
2019-05-12T06:53:37.875Z,75.11
2019-05-12T06:54:44.566Z,75.68
2019-05-12T06:55:39.299Z,73.97
2019-05-12T06:56:37.751Z,73.78
2019-05-12T06:57:40.016Z,75.40
2019-05-12T06:58:37.676Z,73.69
2019-05-12T06:59:41.954Z,72.55
2019-05-12T07:00:37.593Z,72.55
2019-05-12T07:01:37.549Z,72.16
2019-05-12T07:02:49.195Z,74.07
2019-05-12T07:03:37.485Z,75.11
2019-05-12T07:04:41.200Z,77.39
2019-05-12T07:05:38.562Z,79.11
2019-05-12T07:06:37.348Z,80.24
2019-05-12T07:07:41.863Z,80.24
2019-05-12T07:08:38.543Z,80.15
2019-05-12T07:09:50.085Z,81.20
2019-05-12T07:10:43.575Z,80.19
2019-05-12T07:11:44.961Z,78.91
2019-05-12T07:12:54.091Z,82.15
2019-05-12T07:13:37.059Z,81.20
2019-05-12T07:14:37.019Z,79.11
2019-05-12T07:15:40.412Z,84.52
2019-05-12T07:16:36.936Z,83.71
2019-05-12T07:17:43.932Z,82.76
2019-05-12T07:18:37.184Z,88.90
2019-05-12T07:19:36.818Z,91.37
2019-05-12T07:20:38.918Z,91.99
2019-05-12T07:21:36.740Z,91.42
2019-05-12T07:22:43.723Z,91.99
2019-05-12T07:23:36.658Z,91.32
2019-05-12T07:24:40.852Z,93.04
2019-05-12T07:25:36.948Z,91.22
2019-05-12T07:26:47.949Z,93.98
2019-05-12T07:28:40.442Z,93.70
2019-05-12T07:29:40.506Z,90.94
2019-05-12T07:32:44.918Z,95.32
2019-05-12T07:33:41.401Z,90.18
2019-05-12T07:34:43.765Z,92.18
2019-05-12T07:36:28.384Z,91.32
2019-05-12T07:37:29.982Z,90.08
2019-05-12T07:38:27.855Z,90.70
2019-05-12T07:39:44.530Z,90.80
2019-05-12T07:41:50.394Z,92.32
2019-05-12T07:42:38.919Z,93.94
2019-05-12T07:43:33.729Z,95.56
2019-05-12T07:44:39.772Z,98.03
2019-05-12T07:45:33.538Z,92.36
2019-05-12T07:46:34.055Z,99.99
2019-05-12T07:47:33.149Z,99.93
2019-05-12T07:48:33.357Z,99.99
2019-05-12T07:49:36.723Z,99.99
2019-05-12T07:50:31.489Z,99.99
2019-05-12T07:51:38.399Z,99.99
2019-05-12T07:52:33.627Z,99.99
2019-05-12T07:53:33.733Z,99.99
2019-05-12T07:54:35.352Z,99.99
2019-05-12T07:55:33.779Z,99.99
2019-05-12T07:56:35.241Z,99.99
2019-05-12T07:57:34.499Z,98.50
2019-05-12T07:58:33.190Z,97.84
2019-05-12T07:59:38.982Z,99.55
2019-05-12T08:00:33.756Z,97.08
2019-05-12T08:01:35.761Z,97.17
2019-05-12T08:02:31.917Z,98.18
2019-05-12T08:03:30.963Z,96.51
2019-05-12T08:04:31.594Z,95.36
2019-05-12T08:05:33.501Z,95.22
2019-05-12T08:06:32.635Z,96.08
2019-05-12T08:07:30.809Z,94.17
2019-05-12T08:08:30.761Z,99.13
2019-05-12T08:09:32.240Z,98.36
2019-05-12T08:10:30.685Z,99.99
2019-05-12T08:11:34.661Z,99.99
2019-05-12T08:12:30.611Z,97.08
2019-05-12T08:13:31.194Z,97.65
2019-05-12T08:14:30.529Z,99.99
2019-05-12T08:15:30.486Z,96.98
2019-05-12T08:16:33.624Z,94.32
2019-05-12T08:17:30.404Z,95.36
2019-05-12T08:18:35.666Z,91.51
2019-05-12T08:19:30.331Z,88.56
2019-05-12T08:20:30.292Z,93.23
2019-05-12T08:21:34.930Z,93.23
2019-05-12T08:22:30.208Z,92.84
2019-05-12T08:23:30.168Z,97.88
2019-05-12T08:24:36.952Z,98.27
2019-05-12T08:25:30.096Z,99.60
2019-05-12T08:26:30.051Z,99.41
2019-05-12T08:27:30.007Z,96.74
2019-05-12T08:28:35.869Z,97.69
2019-05-12T08:29:29.926Z,98.08
2019-05-12T08:30:29.888Z,99.99
2019-05-12T08:31:33.155Z,99.99
2019-05-12T08:32:29.813Z,99.08
2019-05-12T08:33:29.772Z,97.65
2019-05-12T08:34:29.730Z,98.60
2019-05-12T08:35:34.720Z,99.93
2019-05-12T08:36:29.649Z,98.69
2019-05-12T08:37:29.615Z,97.74
2019-05-12T08:38:29.572Z,97.55
2019-05-12T08:39:29.528Z,97.17
2019-05-12T08:40:29.487Z,99.99
2019-05-12T08:41:29.447Z,99.99
2019-05-12T08:42:29.409Z,99.99
2019-05-12T08:43:29.371Z,99.99
2019-05-12T08:44:33.491Z,99.99
2019-05-12T08:45:33.959Z,99.99
2019-05-12T08:46:29.251Z,99.99
2019-05-12T08:47:34.385Z,99.99
2019-05-12T08:48:29.167Z,99.74
2019-05-12T08:49:34.116Z,99.99
2019-05-12T08:50:31.525Z,99.99
2019-05-12T08:51:29.052Z,99.99
2019-05-12T08:52:30.684Z,99.99
2019-05-12T08:53:28.968Z,99.99
2019-05-12T08:54:28.932Z,99.99
2019-05-12T08:55:31.271Z,99.99
2019-05-12T08:56:28.856Z,99.99
2019-05-12T08:57:34.819Z,99.99
2019-05-12T08:58:33.456Z,99.99
2019-05-12T08:59:28.840Z,99.99
2019-05-12T09:00:28.693Z,99.99
2019-05-12T09:01:30.731Z,99.99
2019-05-12T09:02:28.612Z,99.99
2019-05-12T09:03:30.561Z,99.99
2019-05-12T09:04:28.536Z,99.99
2019-05-12T09:05:34.528Z,99.99
2019-05-12T09:06:28.457Z,99.99
2019-05-12T09:07:30.221Z,99.99
2019-05-12T09:08:28.372Z,99.99
2019-05-12T09:09:28.340Z,99.99
2019-05-12T09:10:28.297Z,99.99
2019-05-12T09:11:28.258Z,99.99
2019-05-12T09:12:28.218Z,99.99
2019-05-12T09:13:28.179Z,99.99
2019-05-12T09:14:28.138Z,99.99
2019-05-12T09:15:28.100Z,99.99
2019-05-12T09:16:28.082Z,99.99
2019-05-12T09:17:28.026Z,99.99
2019-05-12T09:18:33.515Z,99.99
2019-05-12T09:19:27.940Z,99.99
2019-05-12T09:20:27.904Z,99.99
2019-05-12T09:21:31.625Z,99.99
2019-05-12T09:22:27.822Z,99.99
2019-05-12T09:23:32.742Z,99.99
2019-05-12T09:24:27.748Z,99.99
2019-05-12T09:25:27.701Z,99.99
2019-05-12T09:26:28.496Z,99.99
2019-05-12T09:27:27.628Z,99.99
2019-05-12T09:28:27.614Z,99.99
2019-05-12T09:29:27.550Z,99.99
2019-05-12T09:30:27.510Z,99.99
2019-05-12T09:31:29.530Z,99.99
2019-05-12T09:32:27.425Z,99.99
2019-05-12T09:33:31.662Z,99.99
2019-05-12T09:34:27.414Z,99.99
2019-05-12T09:35:28.594Z,99.99
2019-05-12T09:36:27.276Z,99.99
2019-05-12T09:37:31.035Z,99.99
2019-05-12T09:50:46.178Z,99.99
2019-05-12T09:53:50.768Z,99.99
2019-05-12T09:54:47.734Z,99.99
2019-05-12T09:55:47.385Z,99.99
2019-05-12T09:56:49.940Z,99.99
2019-05-12T09:57:47.308Z,99.99
2019-05-12T09:58:58.238Z,99.99
2019-05-12T09:59:57.268Z,99.99
2019-05-12T10:00:47.174Z,99.99
2019-05-12T10:01:47.135Z,99.99
2019-05-12T10:02:51.063Z,99.99
2019-05-12T10:03:47.055Z,96.22
2019-05-12T10:04:50.260Z,99.99
2019-05-12T10:05:46.974Z,99.99
2019-05-12T10:06:46.933Z,99.99
2019-05-12T10:07:46.895Z,99.99
2019-05-12T10:08:46.854Z,99.99
2019-05-12T10:09:49.181Z,99.99
2019-05-12T10:10:47.176Z,99.99
2019-05-12T10:11:53.836Z,99.99
2019-05-12T10:12:50.541Z,99.99
2019-05-12T10:13:46.653Z,99.99
2019-05-12T10:14:47.250Z,99.99
2019-05-12T10:15:46.575Z,99.99
2019-05-12T10:16:49.695Z,99.99
2019-05-12T10:17:46.495Z,97.51
2019-05-12T10:18:51.209Z,93.79
2019-05-12T10:19:48.348Z,93.51
2019-05-12T10:20:46.377Z,91.60
2019-05-12T10:21:49.051Z,90.26
2019-05-12T10:22:46.304Z,90.45
2019-05-12T10:23:46.255Z,89.60
2019-05-12T10:24:55.272Z,89.40
2019-05-12T10:25:46.180Z,83.88
2019-05-12T10:26:49.364Z,84.07
2019-05-12T10:27:46.109Z,81.88
2019-05-12T10:28:52.037Z,88.45
2019-05-12T10:29:46.024Z,86.26
2019-05-12T10:30:47.261Z,88.88
2019-05-12T10:31:45.950Z,84.97
2019-05-12T10:32:45.908Z,88.59
2019-05-12T10:33:49.023Z,84.78
2019-05-12T10:34:45.824Z,84.88
2019-05-12T10:35:45.791Z,89.74
2019-05-12T10:36:48.944Z,86.59
2019-05-12T10:37:47.278Z,80.39
2019-05-12T10:38:45.670Z,81.54
2019-05-12T10:39:45.637Z,82.01
2019-05-12T10:40:48.218Z,81.54
2019-05-12T10:41:45.557Z,82.68
2019-05-12T10:42:49.331Z,81.92
2019-05-12T10:43:48.400Z,79.91
2019-05-12T10:44:45.439Z,84.11
2019-05-12T10:45:45.401Z,84.20
2019-05-12T10:46:45.362Z,88.69
2019-05-12T10:47:45.328Z,91.55
2019-05-12T10:48:45.286Z,90.98
2019-05-12T10:49:45.248Z,91.60
2019-05-12T10:50:45.210Z,93.88
2019-05-12T10:51:47.456Z,95.61
2019-05-12T10:52:45.133Z,96.17
2019-05-12T10:53:48.727Z,96.84
2019-05-12T10:54:45.056Z,96.89
2019-05-12T10:55:45.013Z,97.27
2019-05-12T10:56:44.975Z,93.65
2019-05-12T10:57:47.262Z,92.41
2019-05-12T10:58:44.896Z,91.83
2019-05-12T10:59:48.486Z,85.25
2019-05-12T11:00:44.822Z,84.88
2019-05-12T11:01:48.844Z,83.44
2019-05-12T11:02:44.759Z,81.73
2019-05-12T11:03:50.833Z,80.49
2019-05-12T11:04:44.666Z,80.68
2019-05-12T11:05:44.629Z,78.86
2019-05-12T11:06:48.364Z,80.11
2019-05-12T11:07:44.558Z,85.06
2019-05-12T11:08:47.301Z,88.31
2019-05-12T11:09:44.474Z,83.35
2019-05-12T11:10:44.450Z,82.34
2019-05-12T11:11:46.937Z,81.20
2019-05-12T11:12:44.359Z,82.01
2019-05-12T11:13:46.216Z,83.54
2019-05-12T11:14:44.281Z,86.40
2019-05-12T11:15:46.112Z,88.98
2019-05-12T11:16:44.630Z,87.93
2019-05-12T11:17:45.974Z,88.88
2019-05-12T11:18:44.127Z,85.25
2019-05-12T11:19:47.070Z,83.54
2019-05-12T11:20:45.063Z,84.59
2019-05-12T11:21:44.324Z,86.49
2019-05-12T11:22:43.984Z,86.78
2019-05-12T11:23:43.935Z,88.73
2019-05-12T11:24:44.452Z,84.53
2019-05-12T11:25:44.054Z,82.82
2019-05-12T11:26:43.822Z,80.15
2019-05-12T11:27:43.837Z,79.96
2019-05-12T11:28:43.743Z,81.67
2019-05-12T11:29:49.171Z,83.39
2019-05-12T11:30:43.828Z,86.30
2019-05-12T11:31:44.102Z,77.00
2019-05-12T11:32:44.165Z,72.03
2019-05-12T11:33:43.659Z,76.33
2019-05-12T11:34:44.321Z,80.05
2019-05-12T11:35:43.629Z,75.95
2019-05-12T11:36:43.756Z,76.81
2019-05-12T11:37:43.419Z,76.62
2019-05-12T11:38:44.346Z,79.28
2019-05-12T11:39:45.228Z,78.23
2019-05-12T11:40:43.775Z,76.42
2019-05-12T11:41:44.250Z,75.18
2019-05-12T11:42:46.839Z,76.04
2019-05-12T11:43:43.173Z,75.76
2019-05-12T11:44:44.322Z,78.47
2019-05-12T11:45:44.210Z,83.81
2019-05-12T11:46:44.101Z,79.90
2019-05-12T11:47:44.656Z,81.85
2019-05-12T11:48:46.404Z,75.45
2019-05-12T11:49:44.172Z,74.59
2019-05-12T11:50:49.466Z,69.53
2019-05-12T11:51:42.869Z,67.01
2019-05-12T11:52:46.011Z,68.26
2019-05-12T11:53:44.503Z,70.32
2019-05-12T11:54:47.249Z,72.80
2019-05-12T11:55:43.817Z,72.03
2019-05-12T11:56:46.637Z,74.52
2019-05-12T11:57:43.781Z,74.42
2019-05-12T11:58:47.370Z,75.22
2019-05-12T11:59:43.475Z,73.12
2019-05-12T12:00:44.091Z,72.55
2019-05-12T12:01:47.449Z,71.75
2019-05-12T12:02:43.745Z,73.28
2019-05-12T12:03:44.054Z,73.22
2019-05-12T12:04:43.516Z,73.69
2019-05-12T12:05:44.169Z,76.84
2019-05-12T12:06:43.875Z,75.42
2019-05-12T12:07:50.552Z,72.45
2019-05-12T12:08:44.030Z,71.78
2019-05-12T12:09:43.816Z,69.11
2019-05-12T12:10:42.139Z,68.35
2019-05-12T12:11:43.343Z,70.45
2019-05-12T12:12:45.243Z,73.50
2019-05-12T12:13:42.030Z,73.54
2019-05-12T12:14:48.423Z,73.73
2019-05-12T12:15:41.957Z,71.72
2019-05-12T12:16:49.799Z,73.32
2019-05-12T12:17:44.025Z,76.08
2019-05-12T12:18:48.624Z,80.47
2019-05-12T12:19:46.698Z,80.28
2019-05-12T12:20:44.102Z,80.09
2019-05-12T12:21:46.125Z,80.47
2019-05-12T12:22:43.443Z,79.52
2019-05-12T12:23:47.302Z,77.42
2019-05-12T12:24:43.519Z,75.60
2019-05-12T12:25:42.959Z,74.17
2019-05-12T12:26:41.541Z,72.64
2019-05-12T12:27:41.496Z,71.88
2019-05-12T12:28:43.419Z,72.93
2019-05-12T12:29:43.720Z,72.36
2019-05-12T12:30:41.388Z,67.97
2019-05-12T12:31:43.334Z,69.02
2019-05-12T12:32:41.310Z,71.98
2019-05-12T12:33:46.481Z,72.11
2019-05-12T12:34:41.231Z,71.82
2019-05-12T12:35:41.200Z,69.15
2019-05-12T12:36:43.477Z,68.57
2019-05-12T12:37:41.125Z,68.19
2019-05-12T12:38:41.085Z,68.10
2019-05-12T12:39:43.328Z,66.66
2019-05-12T12:40:41.007Z,65.90
2019-05-12T12:41:45.706Z,66.72
2019-05-12T12:42:46.260Z,69.40
2019-05-12T12:43:43.169Z,70.54
2019-05-12T12:44:40.858Z,69.40
2019-05-12T12:45:41.406Z,68.54
2019-05-12T12:46:40.777Z,66.72
2019-05-12T12:47:44.404Z,66.82
2019-05-12T12:48:40.708Z,67.49
2019-05-12T12:49:45.271Z,66.72
2019-05-12T12:50:40.633Z,66.19
2019-05-12T12:51:40.589Z,66.85
2019-05-12T12:52:44.839Z,66.85
2019-05-12T12:53:40.515Z,64.94
2019-05-12T12:54:40.482Z,65.14
2019-05-12T12:55:43.382Z,65.14
2019-05-12T12:56:40.404Z,64.85
2019-05-12T12:57:45.117Z,65.52
2019-05-12T12:58:40.333Z,68.32
2019-05-12T12:59:45.475Z,69.09
2019-05-12T13:00:47.173Z,66.60
2019-05-12T13:01:40.216Z,68.32
2019-05-12T13:02:45.145Z,67.84
2019-05-12T13:03:40.138Z,68.23
2019-05-12T13:04:46.038Z,68.70
2019-05-12T13:05:40.065Z,67.84
2019-05-12T13:06:40.027Z,68.26
2019-05-12T13:07:39.994Z,67.65
2019-05-12T13:08:39.954Z,68.23
2019-05-12T13:09:39.916Z,68.90
2019-05-12T13:10:40.667Z,67.46
2019-05-12T13:11:39.841Z,68.29
2019-05-12T13:12:39.803Z,70.48
2019-05-12T13:13:39.766Z,71.82
2019-05-12T13:14:39.726Z,72.11
2019-05-12T13:15:39.694Z,73.44
2019-05-12T13:16:39.655Z,74.69
2019-05-12T13:17:41.785Z,72.87
2019-05-12T13:18:39.579Z,74.49
2019-05-12T13:19:39.543Z,75.64
2019-05-12T13:20:39.504Z,75.35
2019-05-12T13:21:39.470Z,71.86
2019-05-12T13:22:39.437Z,69.95
2019-05-12T13:23:41.117Z,69.47
2019-05-12T13:24:39.358Z,69.18
2019-05-12T13:25:47.724Z,69.47
2019-05-12T13:26:39.284Z,71.47
2019-05-12T13:27:39.248Z,68.45